Time;durP1;ratioP1;P1;durP2;ratioP2;P2;SDS_P1;SDS_P2;PMS_P1;PMS_P2;Temp;Humidity;BMP_temperature;BMP_pressure;BME280_temperature;BME280_humidity;BME280_pressure;Samples;Min_cycle;Max_cycle;Signal;HPM_P1;HPM_P2
2023/10/26 00:01:16;;;;;;;25.03;9.17;;;;;;;17.15;100.00;94038.50;5075955;28;20436;-78
2023/10/26 00:03:43;;;;;;;27.10;8.30;;;;;;;17.20;100.00;94041.38;5075897;28;20803;-78
2023/10/26 00:06:10;;;;;;;21.83;8.03;;;;;;;17.25;100.00;94046.94;5057074;28;20515;-77
2023/10/26 00:08:38;;;;;;;28.37;8.90;;;;;;;17.32;100.00;94039.84;5076224;28;20448;-77
2023/10/26 00:11:05;;;;;;;26.50;7.73;;;;;;;17.35;100.00;94041.31;5075815;28;20445;-78
2023/10/26 00:13:32;;;;;;;34.23;8.03;;;;;;;17.32;100.00;94037.19;5075674;28;20499;-77
2023/10/26 00:15:59;;;;;;;30.83;8.23;;;;;;;17.21;100.00;94036.91;5075708;28;20807;-77
2023/10/26 00:18:26;;;;;;;27.33;7.87;;;;;;;17.25;100.00;94036.31;5075767;28;20859;-77
2023/10/26 00:20:57;;;;;;;24.20;7.43;;;;;;;16.97;100.00;94038.94;5075584;28;20452;-78
2023/10/26 00:23:23;;;;;;;23.13;6.43;;;;;;;16.92;100.00;94045.81;5075134;28;20447;-77
2023/10/26 00:25:51;;;;;;;24.93;7.70;;;;;;;16.98;100.00;94047.69;5074677;28;20479;-77
2023/10/26 00:28:18;;;;;;;25.00;7.50;;;;;;;16.79;100.00;94043.06;5074825;28;20480;-78
2023/10/26 00:30:45;;;;;;;30.80;7.77;;;;;;;16.62;100.00;94032.66;5074671;28;20442;-77
2023/10/26 00:33:12;;;;;;;21.53;7.60;;;;;;;16.42;100.00;94023.66;5074686;28;20794;-78
2023/10/26 00:35:39;;;;;;;30.47;7.83;;;;;;;16.27;100.00;94020.25;5055943;28;20451;-78
2023/10/26 00:38:05;;;;;;;25.70;7.50;;;;;;;16.38;100.00;94017.91;5074520;28;20450;-77
2023/10/26 00:40:32;;;;;;;26.53;8.13;;;;;;;16.50;100.00;94020.09;5075052;28;20463;-77
2023/10/26 00:43:01;;;;;;;20.30;7.63;;;;;;;16.60;100.00;94034.66;5075411;28;20452;-78
2023/10/26 00:45:28;;;;;;;15.00;6.93;;;;;;;16.45;100.00;94010.03;5075138;28;20445;-77
2023/10/26 00:47:55;;;;;;;20.23;5.40;;;;;;;16.56;100.00;94014.88;5074824;28;20445;-77
2023/10/26 00:50:22;;;;;;;16.43;6.03;;;;;;;16.58;100.00;94015.50;5075253;28;20442;-77
2023/10/26 00:52:49;;;;;;;27.50;6.30;;;;;;;16.69;100.00;94009.72;5074757;28;20446;-77
2023/10/26 00:55:17;;;;;;;10.70;4.40;;;;;;;16.69;100.00;94022.97;5055636;28;20440;-77
2023/10/26 00:57:45;;;;;;;10.30;4.40;;;;;;;16.80;100.00;94016.38;5074644;28;20447;-78
2023/10/26 01:00:14;;;;;;;24.17;6.03;;;;;;;16.98;100.00;94031.81;5074648;28;20440;-77
2023/10/26 01:02:41;;;;;;;21.60;7.10;;;;;;;17.12;100.00;94022.16;5074486;28;20445;-77
2023/10/26 01:05:08;;;;;;;26.13;7.67;;;;;;;17.05;100.00;94016.75;5074584;28;20444;-77
2023/10/26 01:07:36;;;;;;;25.50;6.17;;;;;;;16.95;100.00;94013.63;5074419;28;20498;-77
2023/10/26 01:10:03;;;;;;;17.70;6.03;;;;;;;16.80;100.00;94016.38;5074602;28;20535;-77
2023/10/26 01:12:30;;;;;;;17.50;6.50;;;;;;;16.68;100.00;94021.31;5074758;28;20841;-77
2023/10/26 01:14:57;;;;;;;21.03;6.40;;;;;;;16.43;100.00;94009.41;5074389;28;20459;-77
2023/10/26 01:17:26;;;;;;;15.97;6.07;;;;;;;16.45;100.00;94007.38;5072307;28;20433;-77
2023/10/26 01:19:52;;;;;;;26.27;7.27;;;;;;;16.52;100.00;94013.59;5074249;28;20808;-77
2023/10/26 01:22:21;;;;;;;17.53;6.47;;;;;;;16.60;100.00;94017.94;5074267;28;20448;-77
2023/10/26 01:24:47;;;;;;;21.17;6.87;;;;;;;16.51;100.00;94005.84;5055472;28;20440;-77
2023/10/26 01:27:14;;;;;;;13.10;5.23;;;;;;;16.45;100.00;93996.78;5073797;28;20502;-77
2023/10/26 01:29:41;;;;;;;19.73;6.37;;;;;;;16.53;100.00;93996.69;5074309;28;20454;-77
2023/10/26 01:32:08;;;;;;;26.53;7.07;;;;;;;16.54;100.00;93993.03;5074240;28;20447;-77
2023/10/26 01:34:34;;;;;;;22.20;5.60;;;;;;;16.58;100.00;93986.34;5073776;28;20451;-77
2023/10/26 01:37:03;;;;;;;10.40;5.40;;;;;;;16.61;100.00;93996.56;5074011;28;20526;-77
2023/10/26 01:39:31;;;;;;;17.50;5.47;;;;;;;16.61;100.00;94007.16;5073697;28;20208;-78
2023/10/26 01:41:58;;;;;;;24.53;7.50;;;;;;;16.38;100.00;94006.50;5073922;28;20447;-78
2023/10/26 01:44:25;;;;;;;18.37;5.90;;;;;;;16.35;100.00;93997.13;5073872;28;20444;-78
2023/10/26 01:46:52;;;;;;;15.30;5.60;;;;;;;16.29;100.00;94002.34;5074003;28;20609;-77
2023/10/26 01:49:19;;;;;;;18.13;5.13;;;;;;;16.25;100.00;93996.59;5054975;28;20445;-78
2023/10/26 01:51:46;;;;;;;19.80;5.10;;;;;;;16.27;100.00;94002.53;5073897;28;20432;-77
2023/10/26 01:54:12;;;;;;;17.93;6.50;;;;;;;16.17;100.00;93993.22;5073786;28;20447;-77
2023/10/26 01:56:41;;;;;;;19.93;5.93;;;;;;;16.16;100.00;93991.59;5073513;28;20450;-77
2023/10/26 01:59:08;;;;;;;19.40;6.27;;;;;;;16.13;100.00;93999.91;5055030;28;20444;-77
2023/10/26 02:01:35;;;;;;;23.23;5.80;;;;;;;16.18;100.00;94003.63;5073866;28;20438;-77
2023/10/26 02:04:02;;;;;;;22.80;6.67;;;;;;;16.17;100.00;94014.41;5073326;28;20439;-77
2023/10/26 02:06:28;;;;;;;21.60;5.67;;;;;;;16.06;100.00;94024.47;5072484;28;20495;-77
2023/10/26 02:08:55;;;;;;;25.23;6.10;;;;;;;16.08;100.00;94013.69;5073400;28;20429;-77
2023/10/26 02:11:22;;;;;;;12.53;6.37;;;;;;;16.11;100.00;94019.44;5073378;28;20521;-78
2023/10/26 02:13:50;;;;;;;21.37;6.30;;;;;;;16.09;100.00;94026.75;5073447;28;20447;-77
2023/10/26 02:16:18;;;;;;;15.73;5.60;;;;;;;16.15;100.00;94019.06;5073565;28;20457;-78
2023/10/26 02:18:45;;;;;;;21.23;6.60;;;;;;;16.07;100.00;94018.16;5054930;28;20539;-77
2023/10/26 02:21:12;;;;;;;21.47;5.53;;;;;;;16.21;100.00;94024.47;5073265;28;20462;-77
2023/10/26 02:23:40;;;;;;;20.77;5.60;;;;;;;16.33;100.00;94015.00;5073340;28;20433;-77
2023/10/26 02:26:07;;;;;;;15.67;5.97;;;;;;;16.40;100.00;94012.44;5073348;28;20475;-77
2023/10/26 02:28:34;;;;;;;16.33;5.17;;;;;;;16.36;100.00;94012.00;5054056;28;20891;-77
2023/10/26 02:31:03;;;;;;;16.37;5.63;;;;;;;16.39;100.00;94008.97;5072969;28;20783;-77
2023/10/26 02:33:32;;;;;;;19.73;6.77;;;;;;;16.48;100.00;94015.00;5073177;28;20445;-77
2023/10/26 02:35:59;;;;;;;20.43;6.67;;;;;;;16.55;100.00;94010.56;5073385;28;20450;-78
2023/10/26 02:38:25;;;;;;;17.23;5.57;;;;;;;16.64;100.00;94004.13;5072994;28;20438;-77
2023/10/26 02:40:52;;;;;;;19.63;5.70;;;;;;;16.69;100.00;94009.72;5037512;28;20435;-77
2023/10/26 02:43:19;;;;;;;13.80;5.37;;;;;;;16.68;100.00;94002.78;5072827;28;20455;-77
2023/10/26 02:45:46;;;;;;;23.20;6.50;;;;;;;16.46;100.00;93987.84;5054071;28;20432;-77
2023/10/26 02:48:14;;;;;;;16.70;5.80;;;;;;;16.57;100.00;94002.44;5037555;28;20480;-78
2023/10/26 02:50:41;;;;;;;15.63;5.37;;;;;;;16.62;100.00;94008.81;5072923;28;20447;-77
2023/10/26 02:53:06;;;;;;;15.23;5.67;;;;;;;16.49;100.00;93997.28;5037521;28;20447;-77
2023/10/26 02:55:33;;;;;;;21.27;4.43;;;;;;;15.90;100.00;93998.22;5072820;28;20473;-77
2023/10/26 02:58:00;;;;;;;21.93;6.03;;;;;;;16.21;100.00;94003.28;5073068;28;20205;-77
2023/10/26 03:00:27;;;;;;;34.87;6.00;;;;;;;16.27;100.00;93996.41;5072540;28;20975;-77
2023/10/26 03:02:54;;;;;;;11.37;5.90;;;;;;;16.22;100.00;94014.69;5072927;28;20454;-77
2023/10/26 03:05:22;;;;;;;16.00;5.50;;;;;;;16.28;100.00;94017.41;5072673;28;20489;-77
2023/10/26 03:07:49;;;;;;;16.40;5.57;;;;;;;16.23;100.00;94011.84;5072786;28;20494;-78
2023/10/26 03:10:16;;;;;;;10.97;4.80;;;;;;;16.27;100.00;94004.34;5072708;28;20440;-77
2023/10/26 03:12:45;;;;;;;18.90;5.50;;;;;;;16.37;100.00;94002.22;5072898;28;20443;-76
2023/10/26 03:15:12;;;;;;;14.27;5.17;;;;;;;16.42;100.00;94008.59;5072744;28;20460;-78
2023/10/26 03:17:38;;;;;;;23.07;5.70;;;;;;;16.49;100.00;94019.28;5072489;28;20455;-77
2023/10/26 03:20:06;;;;;;;18.80;7.40;;;;;;;16.51;100.00;94006.66;5076736;28;20439;-78
2023/10/26 03:22:35;;;;;;;12.43;6.00;;;;;;;16.53;100.00;93994.06;5058042;28;20444;-77
2023/10/26 03:25:02;;;;;;;18.10;5.40;;;;;;;16.56;100.00;93998.16;5076549;28;20443;-77
2023/10/26 03:27:29;;;;;;;13.57;5.97;;;;;;;16.58;100.00;94007.53;5076094;28;20530;-77
2023/10/26 03:29:56;;;;;;;20.07;5.70;;;;;;;16.53;100.00;94020.53;5076352;28;20922;-77
2023/10/26 03:32:23;;;;;;;13.80;5.17;;;;;;;16.54;100.00;94010.75;5076172;28;20451;-77
2023/10/26 03:34:49;;;;;;;13.50;5.60;;;;;;;16.58;100.00;94009.38;5076271;28;20847;-77
2023/10/26 03:37:16;;;;;;;19.43;5.57;;;;;;;16.59;100.00;93995.94;5076274;28;21023;-77
2023/10/26 03:39:44;;;;;;;16.57;5.03;;;;;;;16.60;100.00;94005.53;5076340;28;20824;-77
2023/10/26 03:42:11;;;;;;;11.70;5.00;;;;;;;16.64;100.00;94000.66;5076305;28;20445;-76
2023/10/26 03:44:38;;;;;;;19.77;5.47;;;;;;;16.55;100.00;94005.28;5076262;28;20460;-79
2023/10/26 03:47:05;;;;;;;13.67;5.37;;;;;;;16.58;100.00;93991.66;5076360;28;20479;-78
2023/10/26 03:49:32;;;;;;;14.53;5.30;;;;;;;16.63;100.00;93983.97;5076106;28;20441;-77
2023/10/26 03:51:59;;;;;;;19.50;5.33;;;;;;;16.31;100.00;93977.31;5075971;28;20474;-78
2023/10/26 03:54:26;;;;;;;11.07;4.33;;;;;;;16.33;100.00;94006.25;5075962;28;20440;-77
2023/10/26 03:56:56;;;;;;;15.07;5.60;;;;;;;16.32;100.00;93986.91;5075890;28;20436;-77
2023/10/26 03:59:23;;;;;;;16.40;5.00;;;;;;;16.31;100.00;93979.16;5075918;28;20444;-78
2023/10/26 04:01:50;;;;;;;12.70;5.30;;;;;;;15.97;100.00;93963.91;5075784;28;20450;-78
2023/10/26 04:04:17;;;;;;;18.23;5.27;;;;;;;15.77;100.00;93969.75;5056874;28;20443;-78
2023/10/26 04:06:44;;;;;;;18.60;5.00;;;;;;;15.97;100.00;93977.94;5075689;28;20482;-78
2023/10/26 04:09:13;;;;;;;22.70;5.30;;;;;;;15.96;100.00;93960.44;5075669;28;20446;-78
2023/10/26 04:11:42;;;;;;;10.20;5.10;;;;;;;15.97;100.00;93983.25;5075684;28;20454;-78
2023/10/26 04:14:10;;;;;;;14.17;5.43;;;;;;;16.06;100.00;93976.00;5057290;28;20444;-78
2023/10/26 04:16:37;;;;;;;13.90;5.33;;;;;;;16.08;100.00;93989.88;5075632;28;20532;-78
2023/10/26 04:19:04;;;;;;;18.87;6.80;;;;;;;16.08;100.00;93990.69;5075729;28;20443;-78
2023/10/26 04:21:31;;;;;;;20.97;6.10;;;;;;;16.13;100.00;93991.97;5075028;28;20487;-78
2023/10/26 04:23:59;;;;;;;20.43;5.90;;;;;;;16.20;100.00;94004.28;5040107;28;20442;-78
2023/10/26 04:26:26;;;;;;;14.90;5.60;;;;;;;16.26;100.00;94006.19;5039936;28;20437;-78
2023/10/26 04:28:52;;;;;;;19.50;5.17;;;;;;;16.19;100.00;93986.75;5040220;28;20494;-79
2023/10/26 04:31:21;;;;;;;14.70;5.20;;;;;;;15.78;100.00;93970.56;5039022;28;20443;-78
2023/10/26 04:33:48;;;;;;;16.63;4.20;;;;;;;15.56;100.00;93958.25;5075223;28;20780;-79
2023/10/26 04:36:14;;;;;;;14.07;4.60;;;;;;;15.73;100.00;93976.41;5075386;28;20450;-78
2023/10/26 04:38:41;;;;;;;14.90;5.80;;;;;;;15.77;100.00;93984.81;5075292;28;20467;-78
2023/10/26 04:41:08;;;;;;;14.30;5.50;;;;;;;15.77;100.00;93984.81;5075198;28;20905;-78
2023/10/26 04:43:35;;;;;;;12.23;5.50;;;;;;;15.78;100.00;93968.75;5075464;28;20446;-78
2023/10/26 04:46:02;;;;;;;15.53;6.43;;;;;;;15.84;100.00;93972.47;5075243;28;20445;-79
2023/10/26 04:48:30;;;;;;;12.80;5.40;;;;;;;16.00;100.00;93992.63;5074721;28;20539;-79
2023/10/26 04:50:57;;;;;;;9.20;4.93;;;;;;;16.09;100.00;93986.22;5075280;28;20451;-80
2023/10/26 04:53:23;;;;;;;13.37;4.43;;;;;;;15.91;100.00;93956.72;5075128;28;20446;-82
2023/10/26 04:55:50;;;;;;;13.73;5.50;;;;;;;15.86;100.00;93962.53;5072937;28;20439;-79
2023/10/26 04:58:17;;;;;;;11.70;4.90;;;;;;;15.96;100.00;93976.31;5074946;28;20448;-79
2023/10/26 05:00:44;;;;;;;15.67;7.20;;;;;;;16.03;100.00;93993.09;5067692;28;20465;-78
2023/10/26 05:03:10;;;;;;;14.43;5.70;;;;;;;16.08;100.00;93985.41;5071868;28;20504;-78
2023/10/26 05:05:39;;;;;;;14.20;6.33;;;;;;;16.09;100.00;93983.56;5074589;28;20455;-78
2023/10/26 05:08:05;;;;;;;12.23;5.70;;;;;;;16.15;100.00;93987.28;5055519;28;20485;-79
2023/10/26 05:10:32;;;;;;;16.63;5.30;;;;;;;16.24;100.00;93988.84;5039223;28;20444;-78
2023/10/26 05:12:59;;;;;;;13.60;6.17;;;;;;;16.28;100.00;93987.47;5074619;28;20864;-78
2023/10/26 05:15:26;;;;;;;18.20;6.57;;;;;;;16.30;100.00;93996.03;5074102;28;20855;-78
2023/10/26 05:17:53;;;;;;;16.97;6.63;;;;;;;16.37;100.00;93996.91;5074127;28;20483;-78
2023/10/26 05:20:21;;;;;;;15.20;5.50;;;;;;;16.37;100.00;94004.88;5038994;28;20506;-78
2023/10/26 05:22:49;;;;;;;14.23;5.50;;;;;;;16.34;100.00;93999.94;5074148;28;20470;-78
2023/10/26 05:25:16;;;;;;;10.20;5.43;;;;;;;16.38;100.00;94012.63;5038723;28;20439;-78
2023/10/26 05:27:43;;;;;;;15.10;6.53;;;;;;;16.37;100.00;94010.16;5074065;28;20850;-78
2023/10/26 05:30:10;;;;;;;14.00;6.03;;;;;;;16.04;100.00;93996.53;5073981;28;20786;-78
2023/10/26 05:32:37;;;;;;;20.07;5.70;;;;;;;15.92;100.00;94004.16;5073928;28;20458;-78
2023/10/26 05:35:05;;;;;;;17.00;5.70;;;;;;;16.04;100.00;94010.59;5073814;28;20491;-78
2023/10/26 05:37:32;;;;;;;19.87;5.13;;;;;;;16.17;100.00;94019.69;5073886;28;20906;-78
2023/10/26 05:40:00;;;;;;;16.47;6.83;;;;;;;16.26;100.00;94015.94;5074037;28;20455;-79
2023/10/26 05:42:27;;;;;;;13.37;4.93;;;;;;;16.32;100.00;94012.56;5073999;28;20446;-79
2023/10/26 05:44:56;;;;;;;13.00;5.57;;;;;;;16.42;100.00;94024.47;5073793;28;20957;-78
2023/10/26 05:47:23;;;;;;;14.70;5.47;;;;;;;16.59;100.00;94021.63;5073440;28;20516;-79
2023/10/26 05:49:50;;;;;;;10.13;6.00;;;;;;;16.63;100.00;94025.53;5073804;28;20816;-78
2023/10/26 05:52:16;;;;;;;16.83;5.70;;;;;;;16.62;100.00;94030.00;5073550;28;20443;-79
2023/10/26 05:54:43;;;;;;;11.70;5.20;;;;;;;16.53;100.00;94030.31;5073848;28;20911;-79
2023/10/26 05:57:12;;;;;;;13.53;5.43;;;;;;;16.50;100.00;94026.22;5073509;28;20454;-79
2023/10/26 05:59:39;;;;;;;15.37;5.40;;;;;;;16.62;100.00;94050.38;5073594;28;20447;-78
2023/10/26 06:02:06;;;;;;;12.73;4.87;;;;;;;16.83;100.00;94047.78;5073561;28;20816;-79
2023/10/26 06:04:32;;;;;;;19.93;7.60;;;;;;;16.91;100.00;94060.91;5073148;28;20441;-79
2023/10/26 06:07:01;;;;;;;14.20;6.27;;;;;;;17.04;100.00;94057.53;5072989;28;20452;-78
2023/10/26 06:09:28;;;;;;;11.27;6.13;;;;;;;17.18;100.00;94054.00;5073305;28;20440;-79
2023/10/26 06:11:54;;;;;;;15.97;7.17;;;;;;;17.09;100.00;94049.88;5073355;28;20507;-78
2023/10/26 06:14:23;;;;;;;14.33;6.87;;;;;;;17.11;100.00;94047.84;5073431;28;20444;-78
2023/10/26 06:16:50;;;;;;;22.93;6.53;;;;;;;17.15;100.00;94051.75;5038082;28;20436;-79
2023/10/26 06:19:16;;;;;;;17.70;6.40;;;;;;;17.23;100.00;94045.47;5072868;28;20452;-78
2023/10/26 06:21:43;;;;;;;11.87;5.97;;;;;;;17.28;100.00;94059.81;5073389;28;20842;-78
2023/10/26 06:24:10;;;;;;;16.93;10.10;;;;;;;17.28;100.00;94062.44;5073098;28;20445;-79
2023/10/26 06:26:37;;;;;;;22.67;11.10;;;;;;;17.39;100.00;94057.66;5054352;28;20456;-78
2023/10/26 06:29:04;;;;;;;27.33;11.20;;;;;;;17.38;100.00;94046.22;5072872;28;20995;-78
2023/10/26 06:31:32;;;;;;;26.87;10.47;;;;;;;17.50;100.00;94065.09;5072923;28;20441;-78
2023/10/26 06:33:59;;;;;;;23.70;11.10;;;;;;;17.54;100.00;94055.72;5072971;28;20924;-78
2023/10/26 06:36:25;;;;;;;17.40;9.60;;;;;;;17.34;100.00;94055.56;5027421;28;20823;-78
2023/10/26 06:38:54;;;;;;;23.93;9.47;;;;;;;17.41;100.00;94053.81;5053830;28;20442;-78
2023/10/26 06:41:21;;;;;;;21.10;8.97;;;;;;;17.60;100.00;94055.75;5072957;28;20914;-79
2023/10/26 06:43:47;;;;;;;29.00;10.13;;;;;;;17.70;100.00;94065.28;5073055;28;20442;-80
2023/10/26 06:46:14;;;;;;;27.00;9.30;;;;;;;17.91;100.00;94073.97;5073427;28;20442;-81
2023/10/26 06:48:42;;;;;;;26.27;10.67;;;;;;;18.19;100.00;94071.28;5072946;28;20476;-79
2023/10/26 06:51:11;;;;;;;21.10;9.50;;;;;;;18.47;100.00;94051.78;5072933;28;20447;-79
2023/10/26 06:53:37;;;;;;;28.13;7.23;;;;;;;18.66;100.00;94055.56;5053942;28;20801;-80
2023/10/26 06:56:11;;;;;;;29.27;7.80;;;;;;;18.82;99.56;94069.31;5056170;28;20470;-78
2023/10/26 06:58:39;;;;;;;16.43;7.00;;;;;;;19.09;97.09;94067.53;5066570;28;20450;-78
2023/10/26 07:01:07;;;;;;;21.83;6.30;;;;;;;19.34;95.50;94064.28;5018055;28;20452;-80
2023/10/26 07:03:34;;;;;;;14.47;7.00;;;;;;;19.49;93.51;94062.25;5034685;28;20493;-78
2023/10/26 07:06:03;;;;;;;27.13;11.87;;;;;;;19.67;94.73;94077.66;5072108;28;20455;-78
2023/10/26 07:08:33;;;;;;;16.93;7.30;;;;;;;19.54;91.75;94086.44;5070704;28;20589;-78
2023/10/26 07:11:00;;;;;;;20.07;7.93;;;;;;;19.54;94.04;94075.78;5063784;28;20499;-78
2023/10/26 07:13:30;;;;;;;15.83;6.23;;;;;;;19.53;94.41;94081.28;5072541;28;20459;-78
2023/10/26 07:16:01;;;;;;;9.27;5.43;;;;;;;19.52;94.75;94069.00;5072902;28;20925;-78
2023/10/26 07:18:28;;;;;;;22.30;5.60;;;;;;;19.59;95.81;94073.31;5055868;28;20477;-78
2023/10/26 07:20:55;;;;;;;16.73;6.80;;;;;;;19.50;92.09;94074.53;5052498;28;20454;-78
2023/10/26 07:23:23;;;;;;;15.23;7.00;;;;;;;19.46;92.31;94074.13;5052448;28;20808;-78
2023/10/26 07:25:50;;;;;;;21.73;12.00;;;;;;;19.58;93.25;94066.38;5052442;28;20816;-78
2023/10/26 07:28:17;;;;;;;10.00;5.23;;;;;;;19.54;82.00;94064.31;5052204;28;20496;-79
2023/10/26 07:30:44;;;;;;;9.77;4.50;;;;;;;19.64;79.57;94068.19;5033814;28;20449;-78
2023/10/26 07:33:11;;;;;;;20.50;5.77;;;;;;;19.72;79.71;94068.00;5052173;28;20454;-78
2023/10/26 07:35:40;;;;;;;14.23;5.20;;;;;;;19.87;81.64;94064.28;5053833;28;20448;-78
2023/10/26 07:38:07;;;;;;;15.90;5.13;;;;;;;19.95;77.64;94069.41;5072331;28;20461;-78
2023/10/26 07:40:37;;;;;;;12.83;5.07;;;;;;;20.07;79.57;94078.41;5037126;28;20441;-79
2023/10/26 07:43:04;;;;;;;23.30;7.67;;;;;;;19.82;85.55;94062.25;5072677;28;20445;-78
2023/10/26 07:45:31;;;;;;;19.60;7.20;;;;;;;19.61;87.40;94063.28;5072422;28;20441;-77
2023/10/26 07:47:58;;;;;;;20.73;8.93;;;;;;;19.56;88.25;94060.44;5071988;28;21007;-78
2023/10/26 07:50:25;;;;;;;21.77;7.17;;;;;;;19.12;90.10;94043.19;5072013;28;20427;-79
2023/10/26 07:52:52;;;;;;;20.93;6.43;;;;;;;19.14;90.82;94046.47;5071689;28;20758;-78
2023/10/26 07:55:18;;;;;;;25.63;7.83;;;;;;;18.97;91.14;94045.22;5072076;28;20436;-78
2023/10/26 07:57:47;;;;;;;22.40;6.80;;;;;;;18.79;91.30;94024.53;5071847;28;21032;-78
2023/10/26 08:00:14;;;;;;;17.37;6.77;;;;;;;18.79;92.47;94029.84;5072821;28;20450;-78
2023/10/26 08:02:41;;;;;;;20.40;6.73;;;;;;;18.75;93.28;94020.63;5036877;28;20437;-78
2023/10/26 08:05:09;;;;;;;10.00;6.23;;;;;;;18.66;94.58;94005.91;5054028;28;20428;-78
2023/10/26 08:07:37;;;;;;;21.70;7.53;;;;;;;18.67;95.10;94010.19;5075662;28;20445;-77
2023/10/26 08:10:04;;;;;;;15.80;8.07;;;;;;;18.69;95.23;94031.25;5075970;28;20478;-78
2023/10/26 08:12:31;;;;;;;14.97;7.37;;;;;;;18.63;93.18;94027.56;5075931;28;20447;-78
2023/10/26 08:15:01;;;;;;;18.43;7.00;;;;;;;18.56;94.23;94027.50;5075922;28;20454;-78
2023/10/26 08:17:28;;;;;;;18.77;6.50;;;;;;;18.67;94.65;94033.28;5075538;28;20450;-78
2023/10/26 08:19:56;;;;;;;15.47;5.97;;;;;;;18.68;95.15;94019.78;5075566;28;20454;-78
2023/10/26 08:22:22;;;;;;;13.70;6.77;;;;;;;18.63;95.66;94021.41;5075658;28;20440;-78
2023/10/26 08:24:49;;;;;;;29.63;7.60;;;;;;;18.72;95.30;94028.19;5075558;28;20449;-79
2023/10/26 08:27:16;;;;;;;11.80;5.23;;;;;;;18.50;92.37;94020.34;5075627;28;20470;-78
2023/10/26 08:29:44;;;;;;;19.90;6.77;;;;;;;18.41;94.59;94010.06;5075327;28;20490;-77
2023/10/26 08:32:12;;;;;;;14.43;5.50;;;;;;;18.49;85.53;94018.69;5075688;28;20459;-78
2023/10/26 08:34:39;;;;;;;10.63;4.70;;;;;;;18.66;86.43;94021.84;5075880;28;20452;-78
2023/10/26 08:37:08;;;;;;;10.87;5.40;;;;;;;18.86;86.81;94013.91;5075506;28;20445;-78
2023/10/26 08:39:35;;;;;;;12.40;5.80;;;;;;;19.04;87.44;94016.78;5075222;28;20449;-79
2023/10/26 08:42:03;;;;;;;10.27;5.47;;;;;;;19.26;86.95;94016.59;5075070;28;20551;-77
2023/10/26 08:44:30;;;;;;;11.90;6.23;;;;;;;19.43;85.83;94020.50;5075372;28;20451;-78
2023/10/26 08:47:00;;;;;;;12.07;5.47;;;;;;;19.31;86.07;94016.81;5074983;28;20459;-78
2023/10/26 08:49:30;;;;;;;14.00;6.33;;;;;;;19.35;86.70;94028.66;5040050;28;21014;-79
2023/10/26 08:51:57;;;;;;;16.57;6.27;;;;;;;19.32;89.45;94013.94;5065129;28;20515;-78
2023/10/26 08:54:24;;;;;;;21.30;7.40;;;;;;;19.40;91.06;94027.06;5068788;28;20439;-78
2023/10/26 08:56:51;;;;;;;15.77;6.40;;;;;;;19.47;92.67;94027.88;5064991;28;20466;-78
2023/10/26 08:59:17;;;;;;;16.07;6.03;;;;;;;19.55;95.36;94002.91;5070390;28;20472;-78
2023/10/26 09:01:46;;;;;;;21.53;5.47;;;;;;;19.59;94.14;94004.13;5074284;28;20456;-78
2023/10/26 09:04:14;;;;;;;11.90;6.37;;;;;;;19.70;94.85;93984.88;5061285;28;20477;-78
2023/10/26 09:06:45;;;;;;;18.17;6.17;;;;;;;19.80;91.72;93982.59;5074560;28;20450;-79
2023/10/26 09:09:13;;;;;;;12.87;5.63;;;;;;;19.96;91.67;93975.19;5073936;28;20497;-78
2023/10/26 09:11:40;;;;;;;11.03;6.43;;;;;;;20.18;89.47;93965.88;5074911;28;20438;-78
2023/10/26 09:14:13;;;;;;;12.90;4.83;;;;;;;20.42;89.28;93970.50;5071436;28;20467;-78
2023/10/26 09:16:41;;;;;;;20.77;6.17;;;;;;;20.66;86.39;93973.47;5054524;28;20500;-79
2023/10/26 09:19:08;;;;;;;15.10;5.73;;;;;;;20.89;84.60;93979.06;5055309;28;20469;-75
2023/10/26 09:21:50;;;;;;;14.23;4.90;;;;;;;21.05;82.12;93943.03;5036273;28;20450;-78
2023/10/26 09:24:25;;;;;;;16.17;6.30;;;;;;;21.10;75.54;93964.53;5073401;28;20438;-78
2023/10/26 09:26:53;;;;;;;14.50;6.47;;;;;;;21.25;80.01;93953.59;5073938;28;20456;-79
2023/10/26 09:29:20;;;;;;;10.87;4.90;;;;;;;21.31;77.40;93971.38;5074556;28;20489;-78
2023/10/26 09:31:54;;;;;;;16.40;7.10;;;;;;;21.39;75.22;93957.75;5055657;28;20525;-77
2023/10/26 09:34:27;;;;;;;11.80;4.60;;;;;;;21.47;65.94;93965.50;5074290;28;20451;-78
2023/10/26 09:37:06;;;;;;;15.47;6.20;;;;;;;21.78;74.22;93966.44;5038665;28;20493;-78
2023/10/26 09:39:34;;;;;;;25.80;7.80;;;;;;;21.92;74.81;93949.22;5038431;28;20443;-78
2023/10/26 09:42:01;;;;;;;10.67;5.90;;;;;;;22.05;76.83;93941.09;5073879;28;20448;-78
2023/10/26 09:44:29;;;;;;;28.17;8.10;;;;;;;22.19;73.54;93949.75;5074113;28;20444;-78
2023/10/26 09:46:56;;;;;;;15.90;5.60;;;;;;;22.28;65.89;93951.13;5038696;28;20457;-78
2023/10/26 09:49:24;;;;;;;11.23;4.37;;;;;;;22.46;67.87;93950.25;5073543;28;21091;-78
2023/10/26 09:51:51;;;;;;;9.57;4.97;;;;;;;22.58;62.34;93955.66;5072038;28;20440;-79
2023/10/26 09:54:22;;;;;;;7.00;3.30;;;;;;;22.70;60.30;93935.94;5073889;28;20472;-78
2023/10/26 09:56:55;;;;;;;8.77;3.90;;;;;;;22.80;59.07;93944.22;5073343;28;20451;-75
2023/10/26 09:59:23;;;;;;;13.80;3.80;;;;;;;22.96;57.48;93928.59;5073385;28;20450;-76
2023/10/26 10:01:50;;;;;;;6.00;3.10;;;;;;;23.05;55.80;93928.00;5073488;28;20444;-78
2023/10/26 10:04:18;;;;;;;15.93;4.90;;;;;;;23.04;57.91;93922.91;5038059;28;20448;-78
2023/10/26 10:06:52;;;;;;;13.13;4.10;;;;;;;22.84;61.08;93912.50;5073324;28;20530;-79
2023/10/26 10:09:23;;;;;;;10.83;4.50;;;;;;;22.73;57.79;93914.06;5073414;28;20493;-79
2023/10/26 10:12:32;;;;;;;4.37;2.60;;;;;;;22.78;55.97;93902.69;5073695;28;20534;-79
2023/10/26 10:15:03;;;;;;;9.70;3.17;;;;;;;22.76;55.90;93889.53;5031296;28;20590;-78
2023/10/26 10:18:06;;;;;;;7.90;3.17;;;;;;;22.74;55.81;93891.63;5030812;28;20483;-78
2023/10/26 10:20:35;;;;;;;7.60;3.40;;;;;;;22.76;54.88;93891.41;4972197;28;20941;-79
2023/10/26 10:23:03;;;;;;;6.90;3.57;;;;;;;22.83;54.54;93890.28;4972162;28;20444;-78
2023/10/26 10:26:02;;;;;;;10.33;3.63;;;;;;;22.88;55.52;93892.28;4972215;28;20454;-79
2023/10/26 10:28:53;;;;;;;5.80;3.00;;;;;;;22.85;56.19;93893.56;4923288;28;20479;-79
2023/10/26 10:31:24;;;;;;;6.80;3.50;;;;;;;22.91;56.87;93893.69;4972034;28;20938;-78
2023/10/26 10:34:03;;;;;;;11.43;3.70;;;;;;;23.02;56.67;93887.53;4972193;28;20478;-79
2023/10/26 10:36:30;;;;;;;7.33;3.30;;;;;;;23.12;55.17;93877.88;4972008;28;20447;-79
2023/10/26 10:39:22;;;;;;;9.27;3.20;;;;;;;23.29;52.89;93882.53;4971745;28;20480;-78
2023/10/26 10:41:51;;;;;;;22.23;3.67;;;;;;;23.33;51.30;93873.81;4876851;29;20543;-79
2023/10/26 10:44:18;;;;;;;6.57;3.77;;;;;;;23.40;52.80;93860.28;4876904;29;20452;-78
2023/10/26 10:46:48;;;;;;;6.63;3.00;;;;;;;23.55;53.64;93860.66;4910944;29;20457;-77
2023/10/26 10:49:16;;;;;;;4.90;2.97;;;;;;;23.49;51.28;93850.88;4914727;29;20526;-79
2023/10/26 10:51:44;;;;;;;5.60;3.20;;;;;;;23.61;52.16;93848.19;4883483;29;20587;-80
2023/10/26 10:54:13;;;;;;;8.43;3.13;;;;;;;23.66;52.15;93842.94;4914720;29;20945;-77
2023/10/26 10:56:43;;;;;;;11.53;3.30;;;;;;;23.80;54.60;93841.66;4967706;28;20953;-78
2023/10/26 10:59:18;;;;;;;7.50;3.60;;;;;;;23.86;53.81;93846.06;4990970;28;20436;-78
2023/10/26 11:01:45;;;;;;;8.67;4.07;;;;;;;23.98;52.90;93844.16;4990576;28;20867;-78
2023/10/26 11:04:13;;;;;;;7.87;3.50;;;;;;;24.09;52.17;93834.47;4990154;28;20451;-77
2023/10/26 11:06:45;;;;;;;5.00;3.37;;;;;;;24.17;52.32;93834.06;4968751;28;20436;-78
2023/10/26 11:09:27;;;;;;;5.97;3.40;;;;;;;24.29;55.17;93828.69;4990932;28;20581;-77
2023/10/26 11:11:54;;;;;;;4.50;3.73;;;;;;;24.38;52.35;93827.25;4989942;28;20467;-77
2023/10/26 11:14:23;;;;;;;5.77;3.20;;;;;;;24.49;49.29;93829.03;4992073;28;20970;-78
2023/10/26 11:16:51;;;;;;;5.23;3.70;;;;;;;24.53;49.18;93832.88;4990002;28;20511;-78
2023/10/26 11:19:18;;;;;;;6.70;3.43;;;;;;;24.61;50.04;93837.88;5062636;28;20443;-78
2023/10/26 11:21:45;;;;;;;7.10;4.37;;;;;;;24.66;48.69;93845.19;5072704;28;20786;-77
2023/10/26 11:24:12;;;;;;;7.93;3.80;;;;;;;24.70;49.24;93836.41;5037207;28;20532;-78
2023/10/26 11:26:39;;;;;;;13.67;3.97;;;;;;;24.66;50.33;93848.69;5072824;28;20452;-78